Time;durP1;ratioP1;P1;durP2;ratioP2;P2;SDS_P1;SDS_P2;PMS_P1;PMS_P2;Temp;Humidity;BMP_temperature;BMP_pressure;BME280_temperature;BME280_humidity;BME280_pressure;Samples;Min_cycle;Max_cycle;Signal;HPM_P1;HPM_P2
2022/06/22 00:00:37;;;;;;;6.75;4.10;;;;;;;26.01;41.01;101512.94;5089379;28;20027;-73
2022/06/22 00:03:05;;;;;;;6.88;4.43;;;;;;;26.20;40.25;101513.50;5091621;28;20424;-72
2022/06/22 00:05:30;;;;;;;8.88;4.28;;;;;;;25.86;40.81;101510.28;5090262;28;20063;-73
2022/06/22 00:08:00;;;;;;;9.55;4.22;;;;;;;25.83;41.36;101514.97;5089492;28;20043;-73
2022/06/22 00:11:01;;;;;;;10.18;4.72;;;;;;;25.57;42.05;101515.66;5090364;28;20028;-72
2022/06/22 00:13:29;;;;;;;8.98;4.30;;;;;;;25.82;41.18;101514.13;5051621;28;20036;-72
2022/06/22 00:16:02;;;;;;;10.25;5.10;;;;;;;25.63;41.74;101513.56;5089278;28;20055;-73
2022/06/22 00:18:38;;;;;;;9.48;4.88;;;;;;;25.49;41.96;101517.97;5090222;28;20510;-73
2022/06/22 00:21:15;;;;;;;11.23;4.68;;;;;;;25.38;42.65;101515.09;5090247;28;20023;-72
2022/06/22 00:23:44;;;;;;;6.40;4.43;;;;;;;25.52;41.79;101511.56;5091235;28;20545;-72
2022/06/22 00:26:18;;;;;;;6.72;4.72;;;;;;;25.46;41.82;101504.78;5090070;28;20024;-72
2022/06/22 00:29:02;;;;;;;8.35;4.72;;;;;;;25.41;41.92;101509.56;5089302;28;20480;-72
2022/06/22 00:31:43;;;;;;;7.90;4.40;;;;;;;25.31;42.39;101503.88;5090083;28;20023;-72
2022/06/22 00:34:08;;;;;;;8.38;4.82;;;;;;;25.37;41.96;101508.03;5089988;28;20122;-72
2022/06/22 00:36:44;;;;;;;7.00;4.50;;;;;;;25.44;41.66;101497.81;5089118;28;20035;-72
2022/06/22 00:39:16;;;;;;;9.45;5.57;;;;;;;25.05;42.30;101503.66;5090060;28;20048;-72
2022/06/22 00:41:44;;;;;;;;;;;;;;;25.33;42.06;101498.47;5090483;28;20086;-72
2022/06/22 00:44:13;;;;;;;11.80;5.57;;;;;;;25.33;41.94;101501.16;5089204;28;19934;-71
2022/06/22 00:46:58;;;;;;;8.10;5.10;;;;;;;25.33;41.93;101485.09;5091213;28;20472;-72
2022/06/22 00:49:25;;;;;;;11.20;5.65;;;;;;;24.96;42.08;101498.00;5089258;28;20476;-72
2022/06/22 00:51:51;;;;;;;7.47;5.28;;;;;;;24.94;42.38;101484.75;5091242;28;20012;-72
2022/06/22 00:54:24;;;;;;;8.80;5.97;;;;;;;24.58;43.00;101482.41;5090063;28;20074;-72
2022/06/22 00:57:25;;;;;;;10.15;6.20;;;;;;;24.40;43.82;101479.91;5089018;28;20419;-72
2022/06/22 01:00:13;;;;;;;11.07;6.18;;;;;;;24.47;43.58;101491.94;5089787;28;20047;-72
2022/06/22 01:02:51;;;;;;;14.80;5.93;;;;;;;24.67;43.32;101493.44;5091008;28;20051;-72
2022/06/22 01:05:38;;;;;;;8.50;5.53;;;;;;;24.41;43.78;101486.09;5092042;28;20028;-72
2022/06/22 01:08:07;;;;;;;7.55;5.75;;;;;;;24.60;43.20;101480.53;5093395;28;20020;-72
2022/06/22 01:10:45;;;;;;;9.35;6.70;;;;;;;24.33;43.88;101473.16;5094239;28;20126;-72
2022/06/22 01:13:25;;;;;;;11.25;6.03;;;;;;;24.71;43.05;101484.28;5093137;28;20028;-72
2022/06/22 01:15:57;;;;;;;7.60;5.97;;;;;;;24.35;44.06;101503.34;5092800;28;20032;-72
2022/06/22 01:18:32;;;;;;;11.45;6.05;;;;;;;24.51;43.15;101498.81;5093931;28;20084;-72
2022/06/22 01:21:01;;;;;;;16.70;6.78;;;;;;;24.70;42.27;101498.63;5094486;28;20031;-72
2022/06/22 01:23:48;;;;;;;9.80;5.82;;;;;;;24.93;42.39;101492.88;5092982;28;20039;-72
2022/06/22 01:26:32;;;;;;;11.68;6.22;;;;;;;24.89;42.36;101493.06;5092105;28;20024;-72
2022/06/22 01:29:17;;;;;;;13.02;6.97;;;;;;;24.56;42.87;101487.84;5092984;28;20502;-72
2022/06/22 01:32:12;;;;;;;17.17;8.55;;;;;;;24.59;43.39;101479.66;5091932;28;20021;-72
2022/06/22 01:34:42;;;;;;;10.85;7.05;;;;;;;23.87;44.96;101489.97;5083536;28;20028;-72
2022/06/22 01:37:15;;;;;;;13.25;6.63;;;;;;;24.68;43.38;101484.50;5092140;28;20434;-72
2022/06/22 01:39:40;;;;;;;;;;;;;;;24.26;43.46;101487.84;5092097;28;20058;-72
2022/06/22 01:42:16;;;;;;;9.25;7.03;;;;;;;24.19;44.39;101488.19;5092425;28;19916;-72
2022/06/22 01:44:44;;;;;;;14.25;6.82;;;;;;;24.52;43.83;101495.22;5092393;28;20073;-72
2022/06/22 01:47:18;;;;;;;12.50;7.30;;;;;;;24.53;42.91;101499.56;5092719;28;20024;-72
2022/06/22 01:50:07;;;;;;;10.65;6.93;;;;;;;24.79;42.86;101507.91;5092182;28;20027;-72
2022/06/22 01:52:40;;;;;;;11.20;7.05;;;;;;;25.21;41.71;101503.59;5082731;28;20435;-72
2022/06/22 01:55:21;;;;;;;12.20;7.07;;;;;;;24.35;44.13;101516.69;5093591;28;20085;-72
2022/06/22 01:57:58;;;;;;;13.65;7.07;;;;;;;24.44;43.74;101521.50;5092123;28;20023;-72
2022/06/22 02:00:24;;;;;;;18.05;7.00;;;;;;;24.76;42.79;101508.09;5091561;28;20020;-73
2022/06/22 02:02:52;;;;;;;11.98;7.93;;;;;;;24.51;43.59;101504.16;5092318;28;20024;-72
2022/06/22 02:05:24;;;;;;;14.13;7.45;;;;;;;24.56;43.38;101502.09;5091817;28;20157;-72
2022/06/22 02:08:19;;;;;;;12.10;6.90;;;;;;;24.76;42.35;101508.09;5091234;28;20115;-72
2022/06/22 02:10:53;;;;;;;13.43;7.32;;;;;;;24.63;43.00;101515.13;5092168;28;20040;-72
2022/06/22 02:13:40;;;;;;;13.30;7.30;;;;;;;24.89;42.72;101503.75;5093134;28;20028;-72
2022/06/22 02:16:30;;;;;;;12.82;7.30;;;;;;;23.26;46.44;101503.03;5090945;28;20032;-72
2022/06/22 02:18:58;;;;;;;14.82;7.13;;;;;;;24.38;43.39;101497.81;5091680;28;20038;-73
2022/06/22 02:21:25;;;;;;;15.52;7.40;;;;;;;24.70;42.71;101497.75;5090894;28;20079;-72
2022/06/22 02:24:26;;;;;;;8.82;6.82;;;;;;;23.95;44.63;101497.59;5091706;28;20055;-72
2022/06/22 02:26:57;;;;;;;9.43;7.07;;;;;;;23.53;45.15;101491.81;5091475;28;20122;-72
2022/06/22 02:29:30;;;;;;;11.63;7.43;;;;;;;24.02;44.42;101490.97;5090793;28;20039;-72
2022/06/22 02:32:01;;;;;;;13.00;6.95;;;;;;;23.83;44.72;101475.94;5093012;28;20024;-72
2022/06/22 02:34:28;;;;;;;14.25;6.95;;;;;;;24.31;43.83;101473.25;5092834;28;20345;-72
2022/06/22 02:36:53;;;;;;;12.63;7.15;;;;;;;24.12;44.02;101469.94;5090800;28;20032;-72
2022/06/22 02:39:22;;;;;;;13.05;7.78;;;;;;;23.97;43.84;101471.66;5086704;28;20135;-72
2022/06/22 02:44:41;;;;;;;13.45;7.68;;;;;;;24.37;43.59;101448.00;5072830;28;20059;-72
2022/06/22 02:47:25;;;;;;;13.20;6.55;;;;;;;24.54;43.23;101439.84;5054273;28;20028;-72
2022/06/22 02:50:01;;;;;;;15.63;7.30;;;;;;;24.03;43.87;101444.63;5053613;28;20122;-73
2022/06/22 02:52:37;;;;;;;14.55;6.63;;;;;;;23.82;44.48;101441.31;5054313;28;20029;-72
2022/06/22 02:55:03;;;;;;;14.52;7.22;;;;;;;22.69;46.68;101445.50;5072310;28;20028;-72
2022/06/22 02:57:48;;;;;;;15.30;7.85;;;;;;;23.26;45.80;101439.03;5053563;28;20063;-72
2022/06/22 03:00:35;;;;;;;14.25;8.50;;;;;;;23.06;46.61;101445.41;5054113;28;20066;-72
2022/06/22 03:03:07;;;;;;;11.02;8.75;;;;;;;22.93;46.69;101436.31;5053681;28;20021;-72
2022/06/22 03:05:34;;;;;;;12.20;7.72;;;;;;;22.83;46.10;101438.59;5072006;28;20337;-72
2022/06/22 03:08:01;;;;;;;13.48;8.38;;;;;;;22.30;46.81;101440.41;5071677;28;20024;-72
2022/06/22 03:10:40;;;;;;;14.98;7.95;;;;;;;22.07;48.75;101438.88;5053521;28;20021;-72
2022/06/22 03:13:06;;;;;;;14.68;9.45;;;;;;;21.38;50.15;101441.16;5054138;28;20024;-73
2022/06/22 03:15:36;;;;;;;15.00;10.90;;;;;;;22.07;49.70;101442.38;5053902;28;20039;-73
2022/06/22 03:18:03;;;;;;;13.00;9.18;;;;;;;22.07;49.55;101434.38;5052905;28;20025;-73
2022/06/22 03:20:35;;;;;;;15.95;9.82;;;;;;;22.17;48.90;101442.78;5053511;28;20025;-73
2022/06/22 03:23:26;;;;;;;18.38;10.27;;;;;;;23.07;46.35;101441.81;5053743;28;20021;-73
2022/06/22 03:26:02;;;;;;;13.98;9.10;;;;;;;23.36;45.55;101434.06;5053243;28;20107;-74
2022/06/22 03:28:34;;;;;;;15.77;8.48;;;;;;;23.53;44.26;101435.81;5053375;28;20020;-75
2022/06/22 03:31:35;;;;;;;14.57;8.55;;;;;;;23.37;45.30;101447.31;5053651;28;20024;-75
2022/06/22 03:34:15;;;;;;;13.25;9.23;;;;;;;23.30;45.37;101450.38;5054103;28;20082;-74
2022/06/22 03:36:53;;;;;;;12.60;8.88;;;;;;;23.05;45.97;101454.34;5053868;28;20074;-74
2022/06/22 03:39:24;;;;;;;13.80;9.30;;;;;;;23.14;45.21;101451.22;5060748;28;20044;-75
2022/06/22 03:41:56;;;;;;;12.02;8.80;;;;;;;22.83;46.56;101455.47;5090493;28;20028;-74
2022/06/22 03:44:37;;;;;;;16.45;10.15;;;;;;;23.38;44.73;101451.72;5092148;28;20020;-75
2022/06/22 03:47:13;;;;;;;15.70;8.98;;;;;;;22.86;46.33;101451.75;5091284;28;20098;-75
2022/06/22 03:49:56;;;;;;;18.33;9.70;;;;;;;22.97;45.85;101464.53;5090580;28;20047;-75
2022/06/22 03:52:31;;;;;;;13.93;9.52;;;;;;;22.94;46.36;101464.72;5089753;28;20016;-74
2022/06/22 03:55:24;;;;;;;19.95;10.50;;;;;;;23.19;45.59;101459.84;5090791;28;20414;-74
2022/06/22 03:57:54;;;;;;;16.48;9.23;;;;;;;22.43;47.43;101465.47;5090278;28;20049;-73
2022/06/22 04:00:19;;;;;;;14.00;10.13;;;;;;;22.91;46.43;101456.88;5091126;28;20027;-73
2022/06/22 04:02:45;;;;;;;19.45;11.18;;;;;;;22.98;46.03;101460.94;5090258;28;20020;-73
2022/06/22 04:05:23;;;;;;;21.73;10.90;;;;;;;22.77;47.08;101463.78;5091838;28;20080;-74
2022/06/22 04:07:50;;;;;;;16.92;10.40;;;;;;;22.92;45.52;101461.28;5089798;28;20101;-74
2022/06/22 04:10:46;;;;;;;16.63;9.95;;;;;;;22.75;46.92;101465.69;5090385;28;20032;-73
2022/06/22 04:13:21;;;;;;;13.95;9.95;;;;;;;22.40;47.49;101460.31;5090328;28;20024;-73
2022/06/22 04:15:59;;;;;;;15.50;10.70;;;;;;;22.28;47.73;101452.91;5091549;28;20039;-74
2022/06/22 04:18:31;;;;;;;20.45;11.88;;;;;;;22.29;47.79;101451.97;5090323;28;20032;-73
2022/06/22 04:21:06;;;;;;;17.08;10.00;;;;;;;22.14;48.57;101449.13;5090716;28;20093;-73
2022/06/22 04:23:51;;;;;;;16.02;10.40;;;;;;;21.85;49.88;101459.38;5090264;28;20448;-74
2022/06/22 04:26:33;;;;;;;16.67;9.90;;;;;;;21.52;51.37;101468.00;5090370;28;20381;-73
2022/06/22 04:29:07;;;;;;;15.98;10.75;;;;;;;21.86;50.37;101469.09;5089129;28;20060;-73
2022/06/22 04:31:36;;;;;;;19.70;10.80;;;;;;;22.14;49.04;101470.41;5091986;28;20097;-74
2022/06/22 04:34:10;;;;;;;18.55;10.80;;;;;;;21.57;50.63;101461.59;5090193;28;20158;-74
2022/06/22 04:36:48;;;;;;;17.08;10.95;;;;;;;20.79;54.20;101478.28;5089654;28;20026;-74
2022/06/22 04:39:19;;;;;;;16.65;10.52;;;;;;;21.60;52.85;101464.13;5090945;28;20115;-73
2022/06/22 04:41:45;;;;;;;19.40;10.93;;;;;;;21.09;52.71;101464.59;5093135;28;20032;-73
2022/06/22 04:44:24;;;;;;;19.52;11.05;;;;;;;22.12;50.77;101461.66;5093947;28;20109;-73
2022/06/22 04:46:53;;;;;;;21.23;12.38;;;;;;;22.09;51.63;101464.47;5094035;28;20028;-73
2022/06/22 04:49:30;;;;;;;19.08;11.85;;;;;;;24.04;46.76;101459.69;5093170;28;20414;-73
2022/06/22 04:52:07;;;;;;;14.18;11.05;;;;;;;24.30;45.19;101468.00;5095028;28;20024;-73
2022/06/22 04:54:37;;;;;;;15.63;9.45;;;;;;;25.50;43.03;101466.19;5093918;28;20028;-73
2022/06/22 04:57:11;;;;;;;11.05;7.93;;;;;;;25.54;41.15;101470.38;5093364;28;20050;-73
2022/06/22 04:59:37;;;;;;;16.20;8.43;;;;;;;26.23;40.22;101474.94;5093759;28;20151;-72
2022/06/22 05:02:06;;;;;;;11.18;6.97;;;;;;;25.61;41.61;101472.66;5093645;28;20051;-72
2022/06/22 05:04:34;;;;;;;11.05;7.32;;;;;;;26.74;39.32;101483.13;5092846;28;20016;-72
2022/06/22 05:07:07;;;;;;;13.05;7.20;;;;;;;27.13;37.35;101482.28;5094973;28;20453;-72
2022/06/22 05:09:48;;;;;;;13.07;6.38;;;;;;;26.72;38.23;101494.91;5093440;28;20024;-72
2022/06/22 05:12:19;;;;;;;9.43;6.63;;;;;;;27.14;37.39;101498.28;5093422;28;20379;-72
2022/06/22 05:14:46;;;;;;;9.90;6.18;;;;;;;28.26;36.08;101497.44;5093608;28;20536;-72
2022/06/22 05:17:36;;;;;;;11.75;5.95;;;;;;;28.96;34.48;101488.66;5092589;28;20024;-73
2022/06/22 05:20:17;;;;;;;19.27;6.68;;;;;;;28.04;35.46;101489.25;5093385;28;20046;-72
2022/06/22 05:22:42;;;;;;;12.98;6.25;;;;;;;28.30;35.49;101494.53;5093461;28;20032;-72
2022/06/22 05:25:12;;;;;;;9.32;5.75;;;;;;;27.68;36.38;101496.31;5092665;28;20016;-72
2022/06/22 05:27:46;;;;;;;11.23;5.50;;;;;;;27.88;36.15;101501.09;5093306;28;20028;-72
2022/06/22 05:30:11;;;;;;;11.27;5.70;;;;;;;27.41;36.67;101505.41;5092852;28;20030;-72
2022/06/22 05:32:49;;;;;;;7.72;5.63;;;;;;;26.97;37.89;101515.56;5092362;28;20024;-72
2022/06/22 05:35:21;;;;;;;9.00;6.15;;;;;;;25.74;40.76;101521.78;5092998;28;20472;-72
2022/06/22 05:37:50;;;;;;;10.73;7.60;;;;;;;26.76;38.69;101520.53;5093402;28;20495;-72
2022/06/22 05:40:17;;;;;;;13.93;7.85;;;;;;;26.47;39.42;101520.66;5092378;28;20056;-72
2022/06/22 05:42:43;;;;;;;14.10;6.82;;;;;;;24.73;42.48;101529.66;5092816;28;20028;-72
2022/06/22 05:45:24;;;;;;;10.85;7.75;;;;;;;25.61;41.48;101526.19;5092192;28;20015;-72
2022/06/22 05:47:52;;;;;;;15.55;8.55;;;;;;;25.61;41.48;101523.50;5092599;28;20142;-72
2022/06/22 05:50:34;;;;;;;14.75;6.95;;;;;;;24.95;42.84;101529.25;5093314;28;20020;-72
2022/06/22 05:53:03;;;;;;;11.65;7.40;;;;;;;26.08;40.53;101514.28;5091842;28;20046;-72
2022/06/22 05:55:37;;;;;;;9.88;6.32;;;;;;;26.49;39.40;101508.03;5093941;28;20435;-72
2022/06/22 05:58:11;;;;;;;10.02;6.45;;;;;;;25.86;41.48;101510.28;5092403;28;20031;-72
2022/06/22 06:00:52;;;;;;;10.15;6.25;;;;;;;25.58;42.20;101519.19;5091604;28;20020;-72
2022/06/22 06:03:45;;;;;;;9.65;6.47;;;;;;;25.68;41.75;101516.81;5092060;28;20089;-72
2022/06/22 06:06:16;;;;;;;10.18;5.47;;;;;;;26.60;39.93;101515.34;5092813;28;20027;-72
2022/06/22 06:08:54;;;;;;;12.20;5.50;;;;;;;26.43;39.95;101511.09;5092179;28;20042;-72
2022/06/22 06:11:28;;;;;;;13.45;5.70;;;;;;;26.80;39.00;101522.06;5091937;28;20038;-72
2022/06/22 06:14:00;;;;;;;13.73;6.00;;;;;;;28.03;37.68;101517.13;5091002;28;20036;-72
2022/06/22 06:16:35;;;;;;;9.63;4.70;;;;;;;29.68;34.03;101511.72;5092181;28;20439;-72
2022/06/22 06:19:04;;;;;;;5.82;4.10;;;;;;;30.67;32.08;101515.28;5092025;28;20036;-72
2022/06/22 06:21:39;;;;;;;8.38;4.03;;;;;;;32.03;30.91;101502.59;5090995;28;20031;-72
2022/06/22 06:24:20;;;;;;;10.02;4.55;;;;;;;31.53;30.20;101512.41;5091729;28;20071;-71
2022/06/22 06:29:57;;;;;;;10.57;3.78;;;;;;;34.59;25.52;101515.16;5093376;28;20113;-72
2022/06/22 06:32:39;;;;;;;8.87;3.60;;;;;;;35.17;26.99;101519.13;5091581;28;20562;-72
2022/06/22 06:35:24;;;;;;;6.78;3.72;;;;;;;33.48;26.53;101518.81;5092250;28;20482;-72
2022/06/22 06:37:52;;;;;;;5.63;4.15;;;;;;;34.10;26.96;101521.81;5091685;28;20028;-72
2022/06/22 06:40:24;;;;;;;6.85;3.30;;;;;;;32.96;27.02;101533.66;5091239;28;20040;-72
2022/06/22 06:43:00;;;;;;;7.35;2.88;;;;;;;33.80;26.08;101517.56;5090673;28;20085;-72
2022/06/22 06:45:27;;;;;;;8.52;3.25;;;;;;;34.76;25.11;101511.56;5091521;28;20472;-72
2022/06/22 06:47:58;;;;;;;8.63;3.00;;;;;;;35.77;22.98;101514.66;5092786;28;20570;-72
2022/06/22 06:50:52;;;;;;;5.68;2.83;;;;;;;35.84;21.78;101502.16;5090659;28;20387;-72
2022/06/22 06:53:41;;;;;;;7.65;2.97;;;;;;;35.99;22.29;101497.75;5089823;28;20111;-72
2022/06/22 06:56:13;;;;;;;6.22;2.58;;;;;;;36.61;21.13;101499.16;5090772;28;20024;-72
2022/06/22 06:58:50;;;;;;;3.42;2.50;;;;;;;34.04;22.75;101495.28;5090957;28;20047;-72
2022/06/22 07:01:21;;;;;;;5.35;2.97;;;;;;;34.34;23.25;101501.38;5091716;28;20062;-72
2022/06/22 07:03:49;;;;;;;5.75;2.30;;;;;;;34.14;23.00;101497.91;5089643;28;20343;-72
2022/06/22 07:06:15;;;;;;;4.30;2.47;;;;;;;35.79;22.88;101493.59;5092068;28;20035;-72
2022/06/22 07:08:51;;;;;;;6.03;2.45;;;;;;;35.98;20.76;101490.63;5091040;28;20035;-72
2022/06/22 07:11:31;;;;;;;5.03;2.20;;;;;;;36.38;18.73;101490.84;5090190;28;20750;-72
2022/06/22 07:14:03;;;;;;;6.22;2.70;;;;;;;35.83;20.05;101492.28;5090492;28;20047;-72
2022/06/22 07:16:28;;;;;;;4.22;2.55;;;;;;;34.52;21.55;101498.63;5091117;28;20307;-71
2022/06/22 07:19:01;;;;;;;4.82;2.40;;;;;;;34.06;22.07;101495.13;5090448;28;20466;-72
2022/06/22 07:21:32;;;;;;;4.90;2.90;;;;;;;34.57;21.37;101498.16;5090373;28;20077;-72
2022/06/22 07:24:16;;;;;;;4.93;2.78;;;;;;;35.90;21.19;101498.78;5090958;28;20444;-72
2022/06/22 07:27:06;;;;;;;4.85;3.00;;;;;;;35.77;20.52;101504.63;5090154;28;20026;-72
2022/06/22 07:29:43;;;;;;;9.70;3.08;;;;;;;36.91;20.44;101513.13;5090327;28;20460;-72
2022/06/22 07:32:37;;;;;;;5.80;3.88;;;;;;;35.28;20.92;101509.84;5089362;28;20036;-72
2022/06/22 07:35:08;;;;;;;6.25;3.45;;;;;;;35.54;21.43;101514.41;5091277;28;20028;-72
2022/06/22 07:37:38;;;;;;;7.20;3.47;;;;;;;34.86;21.80;101500.63;5089320;28;20032;-72
2022/06/22 07:40:21;;;;;;;5.22;2.90;;;;;;;38.12;19.15;101492.00;5089570;28;20051;-72
2022/06/22 07:42:50;;;;;;;8.25;3.35;;;;;;;36.03;19.36;101486.56;5090073;28;20028;-72
2022/06/22 07:45:19;;;;;;;5.32;2.47;;;;;;;37.71;18.33;101486.78;5090546;28;20035;-72
2022/06/22 07:48:10;;;;;;;2.70;1.90;;;;;;;38.04;18.03;101491.22;5091087;28;20048;-72
2022/06/22 07:50:43;;;;;;;6.90;2.45;;;;;;;38.69;16.71;101484.38;5076537;28;20032;-74
2022/06/22 07:53:25;;;;;;;5.05;2.00;;;;;;;36.96;18.69;101486.22;5089193;28;20473;-74
2022/06/22 07:56:08;;;;;;;3.47;1.52;;;;;;;38.27;16.44;101478.44;5089952;28;20112;-74
2022/06/22 07:58:47;;;;;;;6.72;1.73;;;;;;;37.64;17.16;101485.81;5089048;28;20081;-74
2022/06/22 08:01:17;;;;;;;2.85;1.50;;;;;;;36.37;16.80;101481.00;5090719;28;20024;-74
2022/06/22 08:04:20;;;;;;;3.40;1.52;;;;;;;37.31;17.42;101481.34;5089502;28;20028;-72
2022/06/22 08:06:55;;;;;;;2.92;1.50;;;;;;;38.23;16.00;101479.84;5088686;28;20020;-72
2022/06/22 08:09:34;;;;;;;2.55;1.33;;;;;;;38.54;15.89;101476.16;5091256;28;20020;-72
2022/06/22 08:12:29;;;;;;;4.57;1.67;;;;;;;38.05;16.10;101484.75;5089056;28;20493;-72
2022/06/22 08:14:55;;;;;;;4.72;1.92;;;;;;;38.41;16.05;101482.25;5088675;28;20044;-72
2022/06/22 08:17:23;;;;;;;3.38;1.50;;;;;;;36.61;18.08;101485.56;5094775;28;20097;-72
2022/06/22 08:19:49;;;;;;;3.90;1.67;;;;;;;36.88;17.84;101488.97;5092619;28;20402;-72
2022/06/22 08:22:14;;;;;;;5.72;1.70;;;;;;;37.99;16.61;101481.69;5093303;28;20145;-72
2022/06/22 08:24:49;;;;;;;5.00;1.70;;;;;;;38.61;18.07;101485.31;5093268;28;20031;-72
2022/06/22 08:27:18;;;;;;;4.07;1.65;;;;;;;38.55;15.93;101483.31;5092684;28;20035;-72
2022/06/22 08:29:46;;;;;;;1.60;1.25;;;;;;;38.16;16.95;101490.59;5093163;28;20457;-72
2022/06/22 08:32:21;;;;;;;1.65;1.55;;;;;;;37.43;16.57;101494.63;5093188;28;20220;-72
2022/06/22 08:34:55;;;;;;;3.17;1.55;;;;;;;39.62;16.43;101495.81;5092258;28;20090;-71
2022/06/22 08:37:41;;;;;;;3.78;1.80;;;;;;;40.45;13.98;101491.81;5093207;28;20032;-72
2022/06/22 08:40:29;;;;;;;4.45;2.10;;;;;;;38.34;17.01;101493.03;5082444;28;20058;-72
2022/06/22 08:43:04;;;;;;;4.63;1.85;;;;;;;38.76;16.42;101484.50;5055324;28;20119;-73
2022/06/22 08:46:03;;;;;;;5.38;1.75;;;;;;;39.12;16.19;101486.50;5055677;28;20060;-72
2022/06/22 08:48:28;;;;;;;5.68;2.45;;;;;;;39.51;14.74;101483.44;5055463;28;20027;-72
2022/06/22 08:51:18;;;;;;;1.85;1.65;;;;;;;39.60;16.74;101492.44;5074020;28;20104;-72
2022/06/22 08:53:58;;;;;;;6.43;2.85;;;;;;;39.24;15.29;101493.22;5055802;28;20032;-72
2022/06/22 08:56:38;;;;;;;3.78;1.90;;;;;;;40.01;14.98;101500.03;5055063;28;20028;-72
2022/06/22 08:59:28;;;;;;;3.53;2.00;;;;;;;37.77;15.03;101496.16;5055839;28;20036;-72
2022/06/22 09:02:26;;;;;;;3.95;2.03;;;;;;;38.26;15.25;101493.09;5072855;28;20036;-72
2022/06/22 09:05:16;;;;;;;4.50;2.15;;;;;;;36.94;16.81;101501.03;5055683;28;20032;-72
2022/06/22 09:08:03;;;;;;;4.93;2.17;;;;;;;39.38;16.25;101502.44;5055324;28;20040;-72
2022/06/22 09:10:44;;;;;;;5.13;2.00;;;;;;;38.82;14.90;101484.59;5054935;28;20029;-71
2022/06/22 09:13:29;;;;;;;3.47;1.65;;;;;;;39.72;14.72;101494.66;5073581;28;20063;-72
2022/06/22 09:16:32;;;;;;;4.57;1.65;;;;;;;40.12;14.18;101484.16;5072783;28;20028;-72
2022/06/22 09:19:41;;;;;;;4.40;1.60;;;;;;;40.76;13.12;101496.09;5055376;28;20024;-72
2022/06/22 09:22:18;;;;;;;2.85;1.55;;;;;;;38.01;16.14;101487.81;5054307;28;20105;-71
2022/06/22 09:24:53;;;;;;;1.83;1.30;;;;;;;39.24;15.49;101487.75;5053701;28;20033;-72
2022/06/22 09:27:26;;;;;;;1.60;1.20;;;;;;;39.24;13.22;101487.75;5055311;28;20506;-72
2022/06/22 09:30:09;;;;;;;2.55;1.17;;;;;;;39.07;14.67;101487.06;5054495;28;20116;-72
2022/06/22 09:32:37;;;;;;;19.48;3.63;;;;;;;38.08;15.41;101485.22;5072902;28;20020;-72
2022/06/22 09:35:19;;;;;;;2.55;1.50;;;;;;;38.91;13.77;101482.66;5055116;28;20064;-71
2022/06/22 09:37:57;;;;;;;;;;;;;;;38.92;14.87;101483.47;5054865;28;20040;-72
2022/06/22 09:40:41;;;;;;;2.53;1.40;;;;;;;38.75;14.88;101483.66;5080083;28;19912;-72
2022/06/22 09:43:16;;;;;;;2.22;1.33;;;;;;;38.89;14.35;101479.25;5091762;28;20039;-72
2022/06/22 09:45:52;;;;;;;3.33;1.30;;;;;;;38.76;14.97;101479.03;5091175;28;20024;-72
2022/06/22 09:48:29;;;;;;;4.25;1.35;;;;;;;39.28;14.62;101478.16;5093359;28;20046;-72
2022/06/22 09:51:27;;;;;;;3.35;0.90;;;;;;;37.73;13.86;101481.16;5091184;28;20110;-72
2022/06/22 09:57:36;;;;;;;12.20;2.80;;;;;;;38.85;14.48;101484.22;5093365;28;20380;-72
2022/06/22 10:00:18;;;;;;;4.15;1.00;;;;;;;39.74;12.47;101481.66;5092192;28;20472;-72
2022/06/22 10:03:20;;;;;;;3.97;1.00;;;;;;;39.45;13.72;101483.41;5091750;28;20028;-72
2022/06/22 10:06:15;;;;;;;2.03;1.55;;;;;;;38.82;14.55;101490.06;5090780;28;20119;-72
2022/06/22 10:08:40;;;;;;;2.58;1.52;;;;;;;38.90;14.22;101497.34;5091679;28;20039;-72
2022/06/22 10:11:24;;;;;;;3.67;1.33;;;;;;;38.04;15.31;101499.41;5092893;28;20443;-72
2022/06/22 10:14:13;;;;;;;3.60;1.30;;;;;;;38.64;13.73;101504.03;5090484;28;20487;-72
2022/06/22 10:16:47;;;;;;;3.20;1.17;;;;;;;38.54;14.26;101503.47;5091575;28;20119;-72
2022/06/22 10:19:31;;;;;;;5.47;1.10;;;;;;;37.66;15.01;101498.25;5092026;28;20031;-72
2022/06/22 10:22:13;;;;;;;1.88;0.88;;;;;;;37.28;14.35;101498.06;5091208;28;20070;-72
2022/06/22 10:24:53;;;;;;;0.85;0.73;;;;;;;38.81;13.36;101487.53;5091340;28;20127;-72
2022/06/22 10:27:27;;;;;;;1.88;1.10;;;;;;;38.53;15.35;101485.38;5090484;28;20028;-72
2022/06/22 10:30:11;;;;;;;1.42;1.00;;;;;;;37.44;14.97;101493.56;5090901;28;20024;-72
2022/06/22 10:32:42;;;;;;;2.05;1.05;;;;;;;38.00;15.27;101486.13;5090980;28;20085;-72
2022/06/22 10:35:42;;;;;;;4.32;1.02;;;;;;;37.25;16.54;101482.03;5090213;28;20028;-72
2022/06/22 10:38:45;;;;;;;2.53;0.90;;;;;;;38.28;13.84;101471.97;5090928;28;20039;-72
2022/06/22 10:47:28;;;;;;;1.45;0.90;;;;;;;35.71;16.78;101482.69;5092496;28;19926;-71
2022/06/22 10:50:02;;;;;;;1.55;0.70;;;;;;;38.05;14.72;101480.13;5090875;28;20476;-72
2022/06/22 10:53:05;;;;;;;1.50;1.10;;;;;;;38.13;15.70;101471.03;5090480;28;20020;-72
2022/06/22 10:55:51;;;;;;;2.65;0.90;;;;;;;35.91;16.18;101484.13;5089513;28;20035;-72
2022/06/22 10:58:33;;;;;;;3.00;0.90;;;;;;;36.98;15.10;101480.59;5090551;28;20115;-72
2022/06/22 11:01:23;;;;;;;2.22;0.70;;;;;;;38.27;13.39;101466.69;5091870;28;20028;-72
2022/06/22 11:04:07;;;;;;;0.85;0.60;;;;;;;37.57;14.01;101474.75;5090287;28;20020;-72
2022/06/22 11:06:48;;;;;;;0.63;0.52;;;;;;;37.47;15.17;101468.69;5090566;28;20452;-72
2022/06/22 11:09:44;;;;;;;1.65;0.85;;;;;;;38.12;12.72;101472.06;5089733;28;20115;-72
2022/06/22 11:12:15;;;;;;;3.03;0.90;;;;;;;38.60;14.71;101472.69;5057135;28;20101;-72
2022/06/22 11:15:14;;;;;;;3.00;0.70;;;;;;;37.62;13.74;101476.94;5091609;28;20028;-71
2022/06/22 11:17:57;;;;;;;1.63;0.60;;;;;;;37.25;15.17;101465.69;5090905;28;20059;-72
2022/06/22 11:20:33;;;;;;;1.42;0.70;;;;;;;36.39;15.08;101459.06;5091576;28;20504;-72
2022/06/22 11:23:07;;;;;;;1.55;0.88;;;;;;;36.94;15.74;101458.28;5090826;28;20107;-72
2022/06/22 11:32:13;;;;;;;0.43;0.40;;;;;;;38.49;12.69;101451.31;5091082;28;20080;-72
2022/06/22 11:34:40;;;;;;;2.15;0.80;;;;;;;38.48;13.59;101449.59;5049602;28;20042;-72
2022/06/22 11:37:37;;;;;;;2.20;0.77;;;;;;;37.32;14.63;101450.34;5089178;28;20046;-72
2022/06/22 11:40:23;;;;;;;2.13;0.70;;;;;;;37.97;15.01;101439.25;5089799;28;20066;-72
2022/06/22 11:43:07;;;;;;;0.77;0.77;;;;;;;37.08;14.89;101450.44;5089773;28;20023;-72
2022/06/22 11:45:56;;;;;;;2.30;1.20;;;;;;;36.18;16.62;101446.78;5089246;28;20294;-72
2022/06/22 11:49:06;;;;;;;4.80;1.23;;;;;;;37.47;14.71;101442.28;5091037;28;20024;-72
2022/06/22 11:51:52;;;;;;;1.95;0.93;;;;;;;36.96;15.97;101456.25;5018095;28;20128;-72
2022/06/22 11:54:18;;;;;;;1.60;0.88;;;;;;;36.39;16.28;101449.00;5089591;28;20020;-72
2022/06/22 11:56:56;;;;;;;1.83;0.75;;;;;;;36.86;16.95;101441.97;5089839;28;20387;-72
2022/06/22 11:59:21;;;;;;;1.38;1.02;;;;;;;38.28;14.72;101433.75;5090494;28;20115;-72
2022/06/22 12:01:52;;;;;;;1.15;0.80;;;;;;;36.36;16.43;101432.19;5089476;28;20119;-72
2022/06/22 12:04:41;;;;;;;1.80;0.73;;;;;;;35.29;16.76;101433.63;5090141;28;20038;-71
2022/06/22 12:07:54;;;;;;;2.95;1.30;;;;;;;34.79;18.53;101429.78;5089877;28;20471;-72
2022/06/22 12:10:44;;;;;;;4.15;1.40;;;;;;;36.44;18.00;101432.19;5065910;28;20118;-72
2022/06/22 12:13:27;;;;;;;3.05;1.10;;;;;;;36.23;17.33;101428.09;5088780;28;20127;-72
2022/06/22 12:16:27;;;;;;;1.95;1.02;;;;;;;37.28;17.02;101413.59;5091163;28;20028;-72
2022/06/22 12:19:04;;;;;;;2.50;1.02;;;;;;;35.40;18.96;101420.78;5089039;28;20601;-72
2022/06/22 12:21:56;;;;;;;3.10;1.20;;;;;;;36.42;18.22;101420.59;5089575;28;20032;-72
2022/06/22 12:24:34;;;;;;;1.83;0.98;;;;;;;36.78;16.48;101415.59;5089662;28;20092;-71
2022/06/22 12:27:02;;;;;;;1.25;0.63;;;;;;;36.58;18.06;101414.28;5088805;28;20035;-72
2022/06/22 12:29:54;;;;;;;2.85;1.00;;;;;;;37.44;17.72;101409.06;5089488;28;20126;-72
2022/06/22 12:33:09;;;;;;;0.85;0.68;;;;;;;37.00;16.77;101424.94;5091128;28;20487;-72